sensor_id;sensor_type;location;lat;lon;timestamp;temperature;humidity
1570;DHT22;778;50.120;8.698;2024-01-06T00:02:18;6.50;99.90
1570;DHT22;778;50.120;8.698;2024-01-06T00:04:46;6.50;99.90
1570;DHT22;778;50.120;8.698;2024-01-06T00:07:16;6.40;99.90
1570;DHT22;778;50.120;8.698;2024-01-06T00:09:45;6.40;99.90
1570;DHT22;778;50.120;8.698;2024-01-06T00:12:13;6.30;99.90
1570;DHT22;778;50.120;8.698;2024-01-06T00:14:42;6.30;99.90
1570;DHT22;778;50.120;8.698;2024-01-06T00:17:12;6.30;99.90
1570;DHT22;778;50.120;8.698;2024-01-06T00:19:40;6.30;99.90
1570;DHT22;778;50.120;8.698;2024-01-06T00:22:09;6.30;99.90
1570;DHT22;778;50.120;8.698;2024-01-06T00:24:38;6.20;99.90
1570;DHT22;778;50.120;8.698;2024-01-06T00:27:07;6.20;99.90
1570;DHT22;778;50.120;8.698;2024-01-06T00:29:35;6.20;99.90
1570;DHT22;778;50.120;8.698;2024-01-06T00:32:04;6.20;99.90
1570;DHT22;778;50.120;8.698;2024-01-06T00:34:33;6.20;99.90
1570;DHT22;778;50.120;8.698;2024-01-06T00:37:02;6.20;99.90
1570;DHT22;778;50.120;8.698;2024-01-06T00:39:31;6.20;99.90
1570;DHT22;778;50.120;8.698;2024-01-06T00:42:01;6.10;99.90
1570;DHT22;778;50.120;8.698;2024-01-06T00:44:29;6.10;99.90
1570;DHT22;778;50.120;8.698;2024-01-06T00:46:58;6.00;99.90
1570;DHT22;778;50.120;8.698;2024-01-06T00:49:26;6.00;99.90
1570;DHT22;778;50.120;8.698;2024-01-06T00:51:55;6.00;99.90
1570;DHT22;778;50.120;8.698;2024-01-06T00:54:23;5.90;99.90
1570;DHT22;778;50.120;8.698;2024-01-06T00:56:52;5.90;99.90
1570;DHT22;778;50.120;8.698;2024-01-06T00:59:25;5.90;99.90
1570;DHT22;778;50.120;8.698;2024-01-06T01:01:54;5.90;99.90
1570;DHT22;778;50.120;8.698;2024-01-06T01:04:22;5.90;99.90
1570;DHT22;778;50.120;8.698;2024-01-06T01:06:51;6.00;99.90
1570;DHT22;778;50.120;8.698;2024-01-06T01:09:20;6.00;99.90
1570;DHT22;778;50.120;8.698;2024-01-06T01:11:48;6.00;99.90
1570;DHT22;778;50.120;8.698;2024-01-06T01:14:17;6.10;99.90
1570;DHT22;778;50.120;8.698;2024-01-06T01:16:47;6.10;99.90
1570;DHT22;778;50.120;8.698;2024-01-06T01:19:15;6.20;99.90
1570;DHT22;778;50.120;8.698;2024-01-06T01:21:44;6.10;99.90
1570;DHT22;778;50.120;8.698;2024-01-06T01:24:12;6.10;99.90
1570;DHT22;778;50.120;8.698;2024-01-06T01:26:41;6.10;99.90
1570;DHT22;778;50.120;8.698;2024-01-06T01:29:09;6.10;99.90
1570;DHT22;778;50.120;8.698;2024-01-06T01:31:38;6.20;99.90
1570;DHT22;778;50.120;8.698;2024-01-06T01:34:08;6.20;99.90
1570;DHT22;778;50.120;8.698;2024-01-06T01:36:36;6.20;99.90
1570;DHT22;778;50.120;8.698;2024-01-06T01:39:05;6.10;99.90
1570;DHT22;778;50.120;8.698;2024-01-06T01:41:33;6.20;99.90
1570;DHT22;778;50.120;8.698;2024-01-06T01:44:02;6.20;99.90
1570;DHT22;778;50.120;8.698;2024-01-06T01:46:31;6.20;99.90
1570;DHT22;778;50.120;8.698;2024-01-06T01:49:00;6.20;99.90
1570;DHT22;778;50.120;8.698;2024-01-06T01:51:34;6.20;99.90
1570;DHT22;778;50.120;8.698;2024-01-06T01:54:05;6.20;99.90
1570;DHT22;778;50.120;8.698;2024-01-06T01:56:34;6.20;99.90
1570;DHT22;778;50.120;8.698;2024-01-06T01:59:06;6.20;99.90
1570;DHT22;778;50.120;8.698;2024-01-06T02:01:38;6.30;99.90
1570;DHT22;778;50.120;8.698;2024-01-06T02:04:08;6.30;99.90
1570;DHT22;778;50.120;8.698;2024-01-06T02:06:38;6.30;99.90
1570;DHT22;778;50.120;8.698;2024-01-06T02:09:07;6.40;99.90
1570;DHT22;778;50.120;8.698;2024-01-06T02:11:35;6.30;99.90
1570;DHT22;778;50.120;8.698;2024-01-06T02:14:04;6.40;99.90
1570;DHT22;778;50.120;8.698;2024-01-06T02:16:32;6.40;99.90
1570;DHT22;778;50.120;8.698;2024-01-06T02:19:01;6.50;99.90
1570;DHT22;778;50.120;8.698;2024-01-06T02:21:31;6.30;99.90
1570;DHT22;778;50.120;8.698;2024-01-06T02:24:03;6.30;99.90
1570;DHT22;778;50.120;8.698;2024-01-06T02:26:32;6.30;99.90
1570;DHT22;778;50.120;8.698;2024-01-06T02:29:01;6.30;99.90
1570;DHT22;778;50.120;8.698;2024-01-06T02:31:29;6.40;99.90
1570;DHT22;778;50.120;8.698;2024-01-06T02:33:58;6.30;99.90
1570;DHT22;778;50.120;8.698;2024-01-06T02:36:26;6.30;99.90
1570;DHT22;778;50.120;8.698;2024-01-06T02:38:55;6.30;99.90
1570;DHT22;778;50.120;8.698;2024-01-06T02:41:25;6.30;99.90
1570;DHT22;778;50.120;8.698;2024-01-06T02:43:54;6.30;99.90
1570;DHT22;778;50.120;8.698;2024-01-06T02:46:23;6.30;99.90
1570;DHT22;778;50.120;8.698;2024-01-06T02:48:52;6.30;99.90
1570;DHT22;778;50.120;8.698;2024-01-06T02:51:20;6.30;99.90
1570;DHT22;778;50.120;8.698;2024-01-06T02:53:49;6.30;99.90
1570;DHT22;778;50.120;8.698;2024-01-06T02:56:17;6.40;99.90
1570;DHT22;778;50.120;8.698;2024-01-06T02:58:47;6.30;99.90
1570;DHT22;778;50.120;8.698;2024-01-06T03:01:17;6.30;99.90
1570;DHT22;778;50.120;8.698;2024-01-06T03:03:46;6.60;99.90
1570;DHT22;778;50.120;8.698;2024-01-06T03:06:14;6.40;99.90
1570;DHT22;778;50.120;8.698;2024-01-06T03:08:43;6.40;99.90
1570;DHT22;778;50.120;8.698;2024-01-06T03:11:11;6.40;99.90
1570;DHT22;778;50.120;8.698;2024-01-06T03:13:40;6.50;99.90
1570;DHT22;778;50.120;8.698;2024-01-06T03:16:11;6.50;99.90
1570;DHT22;778;50.120;8.698;2024-01-06T03:18:40;6.50;99.90
1570;DHT22;778;50.120;8.698;2024-01-06T03:21:17;6.60;99.90
1570;DHT22;778;50.120;8.698;2024-01-06T03:23:46;6.50;99.90
1570;DHT22;778;50.120;8.698;2024-01-06T03:26:14;6.60;99.90
1570;DHT22;778;50.120;8.698;2024-01-06T03:28:43;6.50;99.90
1570;DHT22;778;50.120;8.698;2024-01-06T03:31:13;6.50;99.90
1570;DHT22;778;50.120;8.698;2024-01-06T03:33:42;6.50;99.90
1570;DHT22;778;50.120;8.698;2024-01-06T03:36:12;6.50;99.90
1570;DHT22;778;50.120;8.698;2024-01-06T03:38:42;6.50;99.90
1570;DHT22;778;50.120;8.698;2024-01-06T03:41:11;6.50;99.90
1570;DHT22;778;50.120;8.698;2024-01-06T03:43:39;6.60;99.90
1570;DHT22;778;50.120;8.698;2024-01-06T03:46:08;6.60;99.90
1570;DHT22;778;50.120;8.698;2024-01-06T03:48:37;6.60;99.90
1570;DHT22;778;50.120;8.698;2024-01-06T03:51:07;6.60;99.90
1570;DHT22;778;50.120;8.698;2024-01-06T03:53:35;6.60;99.90
1570;DHT22;778;50.120;8.698;2024-01-06T03:56:04;6.60;99.90
1570;DHT22;778;50.120;8.698;2024-01-06T03:58:33;6.60;99.90
1570;DHT22;778;50.120;8.698;2024-01-06T04:01:02;6.60;99.90
1570;DHT22;778;50.120;8.698;2024-01-06T04:03:30;6.60;99.90
1570;DHT22;778;50.120;8.698;2024-01-06T04:06:01;6.60;99.90
1570;DHT22;778;50.120;8.698;2024-01-06T04:08:29;6.60;99.90
1570;DHT22;778;50.120;8.698;2024-01-06T04:10:58;6.60;99.90
1570;DHT22;778;50.120;8.698;2024-01-06T04:13:26;6.60;99.90
1570;DHT22;778;50.120;8.698;2024-01-06T04:15:55;6.60;99.90
1570;DHT22;778;50.120;8.698;2024-01-06T04:18:23;6.60;99.90
1570;DHT22;778;50.120;8.698;2024-01-06T04:20:52;6.70;99.90
1570;DHT22;778;50.120;8.698;2024-01-06T04:23:22;6.60;99.90
1570;DHT22;778;50.120;8.698;2024-01-06T04:25:52;6.60;99.90
1570;DHT22;778;50.120;8.698;2024-01-06T04:28:21;6.60;99.90
1570;DHT22;778;50.120;8.698;2024-01-06T04:30:50;6.60;99.90
1570;DHT22;778;50.120;8.698;2024-01-06T04:33:19;6.60;99.90
1570;DHT22;778;50.120;8.698;2024-01-06T04:35:48;6.60;99.90
1570;DHT22;778;50.120;8.698;2024-01-06T04:38:17;6.50;99.90
1570;DHT22;778;50.120;8.698;2024-01-06T04:40:47;6.60;99.90
1570;DHT22;778;50.120;8.698;2024-01-06T04:43:15;6.60;99.90
1570;DHT22;778;50.120;8.698;2024-01-06T04:45:44;6.60;99.90
1570;DHT22;778;50.120;8.698;2024-01-06T04:48:12;6.60;99.90
1570;DHT22;778;50.120;8.698;2024-01-06T04:50:41;6.50;99.90
1570;DHT22;778;50.120;8.698;2024-01-06T04:53:10;6.60;99.90
1570;DHT22;778;50.120;8.698;2024-01-06T04:55:38;6.60;99.90
1570;DHT22;778;50.120;8.698;2024-01-06T04:58:08;6.50;99.90
1570;DHT22;778;50.120;8.698;2024-01-06T05:00:36;6.50;99.90
1570;DHT22;778;50.120;8.698;2024-01-06T05:03:05;6.50;99.90
1570;DHT22;778;50.120;8.698;2024-01-06T05:05:33;6.50;99.90
1570;DHT22;778;50.120;8.698;2024-01-06T05:08:02;6.50;99.90
1570;DHT22;778;50.120;8.698;2024-01-06T05:10:31;6.50;99.90
1570;DHT22;778;50.120;8.698;2024-01-06T05:13:00;6.50;99.90
1570;DHT22;778;50.120;8.698;2024-01-06T05:15:30;6.70;99.90
1570;DHT22;778;50.120;8.698;2024-01-06T05:17:58;6.50;99.90
1570;DHT22;778;50.120;8.698;2024-01-06T05:20:27;6.50;99.90
1570;DHT22;778;50.120;8.698;2024-01-06T05:22:55;6.50;99.90
1570;DHT22;778;50.120;8.698;2024-01-06T05:25:24;6.50;99.90
1570;DHT22;778;50.120;8.698;2024-01-06T05:27:53;6.50;99.90
1570;DHT22;778;50.120;8.698;2024-01-06T05:30:21;6.50;99.90
1570;DHT22;778;50.120;8.698;2024-01-06T05:32:51;6.40;99.90
1570;DHT22;778;50.120;8.698;2024-01-06T05:35:20;6.50;99.90
1570;DHT22;778;50.120;8.698;2024-01-06T05:37:48;6.30;99.90
1570;DHT22;778;50.120;8.698;2024-01-06T05:40:16;6.30;99.90
1570;DHT22;778;50.120;8.698;2024-01-06T05:42:46;6.30;99.90
1570;DHT22;778;50.120;8.698;2024-01-06T05:45:16;6.30;99.90
1570;DHT22;778;50.120;8.698;2024-01-06T05:47:44;6.30;99.90
1570;DHT22;778;50.120;8.698;2024-01-06T05:50:15;6.40;99.90
1570;DHT22;778;50.120;8.698;2024-01-06T05:52:44;6.40;99.90
1570;DHT22;778;50.120;8.698;2024-01-06T05:55:14;6.40;99.90
1570;DHT22;778;50.120;8.698;2024-01-06T05:57:42;6.40;99.90
1570;DHT22;778;50.120;8.698;2024-01-06T06:00:12;6.40;99.90
1570;DHT22;778;50.120;8.698;2024-01-06T06:02:41;6.40;99.90
1570;DHT22;778;50.120;8.698;2024-01-06T06:05:09;6.40;99.90
1570;DHT22;778;50.120;8.698;2024-01-06T06:07:39;6.40;99.90
1570;DHT22;778;50.120;8.698;2024-01-06T06:10:10;6.40;99.90
1570;DHT22;778;50.120;8.698;2024-01-06T06:12:39;6.40;99.90
1570;DHT22;778;50.120;8.698;2024-01-06T06:15:08;6.40;99.90
1570;DHT22;778;50.120;8.698;2024-01-06T06:17:38;6.40;99.90
1570;DHT22;778;50.120;8.698;2024-01-06T06:20:07;6.40;99.90
1570;DHT22;778;50.120;8.698;2024-01-06T06:22:36;6.40;99.90
1570;DHT22;778;50.120;8.698;2024-01-06T06:25:07;6.40;99.90
1570;DHT22;778;50.120;8.698;2024-01-06T06:27:36;6.30;99.90
1570;DHT22;778;50.120;8.698;2024-01-06T06:30:07;6.40;99.90
1570;DHT22;778;50.120;8.698;2024-01-06T06:32:36;6.40;99.90
1570;DHT22;778;50.120;8.698;2024-01-06T06:35:06;6.30;99.90
1570;DHT22;778;50.120;8.698;2024-01-06T06:37:35;6.30;99.90
1570;DHT22;778;50.120;8.698;2024-01-06T06:40:07;6.30;99.90
1570;DHT22;778;50.120;8.698;2024-01-06T06:42:36;6.30;99.90
1570;DHT22;778;50.120;8.698;2024-01-06T06:45:05;6.30;99.90
1570;DHT22;778;50.120;8.698;2024-01-06T06:47:34;6.30;99.90
1570;DHT22;778;50.120;8.698;2024-01-06T06:50:03;6.30;99.90
1570;DHT22;778;50.120;8.698;2024-01-06T06:52:32;6.30;99.90
1570;DHT22;778;50.120;8.698;2024-01-06T06:55:00;6.40;99.90
1570;DHT22;778;50.120;8.698;2024-01-06T06:57:30;6.40;99.90
1570;DHT22;778;50.120;8.698;2024-01-06T06:59:59;6.40;99.90
1570;DHT22;778;50.120;8.698;2024-01-06T07:02:28;6.40;99.90
1570;DHT22;778;50.120;8.698;2024-01-06T07:04:56;6.40;99.90
1570;DHT22;778;50.120;8.698;2024-01-06T07:07:25;6.40;99.90
1570;DHT22;778;50.120;8.698;2024-01-06T07:09:53;6.40;99.90
1570;DHT22;778;50.120;8.698;2024-01-06T07:12:22;6.40;99.90
1570;DHT22;778;50.120;8.698;2024-01-06T07:14:52;6.40;99.90
1570;DHT22;778;50.120;8.698;2024-01-06T07:17:20;6.40;99.90
1570;DHT22;778;50.120;8.698;2024-01-06T07:19:49;6.40;99.90
1570;DHT22;778;50.120;8.698;2024-01-06T07:22:17;6.40;99.90
1570;DHT22;778;50.120;8.698;2024-01-06T07:24:46;6.40;99.90
1570;DHT22;778;50.120;8.698;2024-01-06T07:27:14;6.40;99.90
1570;DHT22;778;50.120;8.698;2024-01-06T07:29:43;6.50;99.90
1570;DHT22;778;50.120;8.698;2024-01-06T07:32:13;6.40;99.90
1570;DHT22;778;50.120;8.698;2024-01-06T07:34:42;6.40;99.90
1570;DHT22;778;50.120;8.698;2024-01-06T07:37:11;6.40;99.90
1570;DHT22;778;50.120;8.698;2024-01-06T07:39:39;6.40;99.90
1570;DHT22;778;50.120;8.698;2024-01-06T07:42:08;6.40;99.90
1570;DHT22;778;50.120;8.698;2024-01-06T07:44:36;6.40;99.90
1570;DHT22;778;50.120;8.698;2024-01-06T07:47:05;6.40;99.90
1570;DHT22;778;50.120;8.698;2024-01-06T07:49:35;6.40;99.90
1570;DHT22;778;50.120;8.698;2024-01-06T07:52:04;6.40;99.90
1570;DHT22;778;50.120;8.698;2024-01-06T07:54:32;6.40;99.90
1570;DHT22;778;50.120;8.698;2024-01-06T07:57:01;6.40;99.90
1570;DHT22;778;50.120;8.698;2024-01-06T07:59:29;6.40;99.90
1570;DHT22;778;50.120;8.698;2024-01-06T08:01:58;6.40;99.90
1570;DHT22;778;50.120;8.698;2024-01-06T08:04:26;6.50;99.90
1570;DHT22;778;50.120;8.698;2024-01-06T08:06:56;6.50;99.90
1570;DHT22;778;50.120;8.698;2024-01-06T08:09:25;6.50;99.90
1570;DHT22;778;50.120;8.698;2024-01-06T08:11:53;6.40;99.90
1570;DHT22;778;50.120;8.698;2024-01-06T08:14:21;6.50;99.90
1570;DHT22;778;50.120;8.698;2024-01-06T08:16:50;6.50;99.90
1570;DHT22;778;50.120;8.698;2024-01-06T08:19:18;6.50;99.90
1570;DHT22;778;50.120;8.698;2024-01-06T08:21:47;6.60;99.90
1570;DHT22;778;50.120;8.698;2024-01-06T08:24:17;6.50;99.90
1570;DHT22;778;50.120;8.698;2024-01-06T08:26:46;6.50;99.90
1570;DHT22;778;50.120;8.698;2024-01-06T08:29:15;6.60;99.90
1570;DHT22;778;50.120;8.698;2024-01-06T08:31:46;6.50;99.90
1570;DHT22;778;50.120;8.698;2024-01-06T08:34:15;6.50;99.90
1570;DHT22;778;50.120;8.698;2024-01-06T08:36:45;6.50;99.90
1570;DHT22;778;50.120;8.698;2024-01-06T08:39:14;6.60;99.90
1570;DHT22;778;50.120;8.698;2024-01-06T08:41:44;6.60;99.90
1570;DHT22;778;50.120;8.698;2024-01-06T08:44:13;6.60;99.90
1570;DHT22;778;50.120;8.698;2024-01-06T08:46:42;6.70;99.90
1570;DHT22;778;50.120;8.698;2024-01-06T08:49:10;6.60;99.90
1570;DHT22;778;50.120;8.698;2024-01-06T08:51:39;6.60;99.90
1570;DHT22;778;50.120;8.698;2024-01-06T08:54:07;6.60;99.90
1570;DHT22;778;50.120;8.698;2024-01-06T08:56:36;6.60;99.90
1570;DHT22;778;50.120;8.698;2024-01-06T08:59:06;6.70;99.90
1570;DHT22;778;50.120;8.698;2024-01-06T09:01:35;6.70;99.90
1570;DHT22;778;50.120;8.698;2024-01-06T09:04:05;6.70;99.90
1570;DHT22;778;50.120;8.698;2024-01-06T09:06:34;6.70;99.90
1570;DHT22;778;50.120;8.698;2024-01-06T09:09:03;6.80;99.90
1570;DHT22;778;50.120;8.698;2024-01-06T09:11:32;6.80;99.90
1570;DHT22;778;50.120;8.698;2024-01-06T09:14:00;6.80;99.90
1570;DHT22;778;50.120;8.698;2024-01-06T09:16:30;6.90;99.90
1570;DHT22;778;50.120;8.698;2024-01-06T09:18:58;6.90;99.90
1570;DHT22;778;50.120;8.698;2024-01-06T09:21:27;6.90;99.90
1570;DHT22;778;50.120;8.698;2024-01-06T09:23:55;6.80;99.90
1570;DHT22;778;50.120;8.698;2024-01-06T09:26:24;6.80;99.90
1570;DHT22;778;50.120;8.698;2024-01-06T09:28:52;6.80;99.90
1570;DHT22;778;50.120;8.698;2024-01-06T09:31:21;6.70;99.90
1570;DHT22;778;50.120;8.698;2024-01-06T09:33:52;6.70;99.90
1570;DHT22;778;50.120;8.698;2024-01-06T09:36:20;6.80;99.90
1570;DHT22;778;50.120;8.698;2024-01-06T09:38:49;6.80;99.90
1570;DHT22;778;50.120;8.698;2024-01-06T09:41:17;6.80;99.90
1570;DHT22;778;50.120;8.698;2024-01-06T09:43:45;6.80;99.90
1570;DHT22;778;50.120;8.698;2024-01-06T09:46:17;6.80;99.90
1570;DHT22;778;50.120;8.698;2024-01-06T09:48:54;6.80;99.90
1570;DHT22;778;50.120;8.698;2024-01-06T09:51:25;6.80;99.90
1570;DHT22;778;50.120;8.698;2024-01-06T09:53:57;6.80;99.90
1570;DHT22;778;50.120;8.698;2024-01-06T09:56:27;6.80;99.90
1570;DHT22;778;50.120;8.698;2024-01-06T09:58:56;6.90;99.90
1570;DHT22;778;50.120;8.698;2024-01-06T10:01:25;6.80;99.90
1570;DHT22;778;50.120;8.698;2024-01-06T10:03:55;6.80;99.90
1570;DHT22;778;50.120;8.698;2024-01-06T10:06:23;6.80;99.90
1570;DHT22;778;50.120;8.698;2024-01-06T10:08:53;6.90;99.90
1570;DHT22;778;50.120;8.698;2024-01-06T10:11:22;6.90;99.90
1570;DHT22;778;50.120;8.698;2024-01-06T10:13:51;6.90;99.90
1570;DHT22;778;50.120;8.698;2024-01-06T10:16:21;6.90;99.90
1570;DHT22;778;50.120;8.698;2024-01-06T10:18:49;6.80;99.90
1570;DHT22;778;50.120;8.698;2024-01-06T10:21:22;6.90;99.90
1570;DHT22;778;50.120;8.698;2024-01-06T10:23:50;7.00;99.90
1570;DHT22;778;50.120;8.698;2024-01-06T10:26:19;7.00;99.90
1570;DHT22;778;50.120;8.698;2024-01-06T10:28:48;7.00;99.90
1570;DHT22;778;50.120;8.698;2024-01-06T10:31:18;7.00;99.90
1570;DHT22;778;50.120;8.698;2024-01-06T10:33:46;7.00;99.90
1570;DHT22;778;50.120;8.698;2024-01-06T10:36:16;7.10;99.90
1570;DHT22;778;50.120;8.698;2024-01-06T10:38:46;7.00;99.90
1570;DHT22;778;50.120;8.698;2024-01-06T10:41:15;7.00;99.90
1570;DHT22;778;50.120;8.698;2024-01-06T10:43:44;7.10;99.90
1570;DHT22;778;50.120;8.698;2024-01-06T10:46:14;7.10;99.90
1570;DHT22;778;50.120;8.698;2024-01-06T10:48:44;7.20;99.90
1570;DHT22;778;50.120;8.698;2024-01-06T10:51:14;7.10;99.90
1570;DHT22;778;50.120;8.698;2024-01-06T10:53:43;7.20;99.90
1570;DHT22;778;50.120;8.698;2024-01-06T10:56:13;7.10;99.90
1570;DHT22;778;50.120;8.698;2024-01-06T10:58:46;7.20;99.90
1570;DHT22;778;50.120;8.698;2024-01-06T11:01:20;7.10;99.90
1570;DHT22;778;50.120;8.698;2024-01-06T11:03:56;7.20;99.90
1570;DHT22;778;50.120;8.698;2024-01-06T11:06:26;7.20;99.90
1570;DHT22;778;50.120;8.698;2024-01-06T11:09:02;7.20;99.90
1570;DHT22;778;50.120;8.698;2024-01-06T11:11:35;7.30;99.90
1570;DHT22;778;50.120;8.698;2024-01-06T11:14:22;7.30;99.90
1570;DHT22;778;50.120;8.698;2024-01-06T11:16:52;7.40;99.90
1570;DHT22;778;50.120;8.698;2024-01-06T11:19:44;7.40;99.90
1570;DHT22;778;50.120;8.698;2024-01-06T11:22:26;7.40;99.90
1570;DHT22;778;50.120;8.698;2024-01-06T11:24:56;7.50;99.90
1570;DHT22;778;50.120;8.698;2024-01-06T11:27:33;7.50;99.90
1570;DHT22;778;50.120;8.698;2024-01-06T11:30:04;7.50;99.90
1570;DHT22;778;50.120;8.698;2024-01-06T11:32:35;7.60;99.90
1570;DHT22;778;50.120;8.698;2024-01-06T11:35:08;7.60;99.90
1570;DHT22;778;50.120;8.698;2024-01-06T11:37:51;7.60;99.90
1570;DHT22;778;50.120;8.698;2024-01-06T11:40:31;7.70;99.90
1570;DHT22;778;50.120;8.698;2024-01-06T11:43:03;7.70;99.90
1570;DHT22;778;50.120;8.698;2024-01-06T11:45:33;7.70;99.90
1570;DHT22;778;50.120;8.698;2024-01-06T11:48:04;7.80;99.90
1570;DHT22;778;50.120;8.698;2024-01-06T11:50:35;7.80;99.90
1570;DHT22;778;50.120;8.698;2024-01-06T11:53:06;7.80;99.90
1570;DHT22;778;50.120;8.698;2024-01-06T11:55:38;7.90;99.90
1570;DHT22;778;50.120;8.698;2024-01-06T11:58:08;7.90;99.90
1570;DHT22;778;50.120;8.698;2024-01-06T12:00:37;8.00;99.90
1570;DHT22;778;50.120;8.698;2024-01-06T12:03:08;8.20;99.90
1570;DHT22;778;50.120;8.698;2024-01-06T12:05:37;8.20;99.90
1570;DHT22;778;50.120;8.698;2024-01-06T12:08:06;8.30;99.90
1570;DHT22;778;50.120;8.698;2024-01-06T12:10:35;8.30;99.90
1570;DHT22;778;50.120;8.698;2024-01-06T12:13:05;8.40;99.90
1570;DHT22;778;50.120;8.698;2024-01-06T12:15:37;8.30;99.90
1570;DHT22;778;50.120;8.698;2024-01-06T12:18:07;8.40;99.90
1570;DHT22;778;50.120;8.698;2024-01-06T12:20:36;8.30;99.90
1570;DHT22;778;50.120;8.698;2024-01-06T12:23:05;8.30;99.90
1570;DHT22;778;50.120;8.698;2024-01-06T12:25:34;8.30;99.90
1570;DHT22;778;50.120;8.698;2024-01-06T12:28:07;8.30;99.90
1570;DHT22;778;50.120;8.698;2024-01-06T12:30:38;8.30;99.90
1570;DHT22;778;50.120;8.698;2024-01-06T12:33:08;8.30;99.90
1570;DHT22;778;50.120;8.698;2024-01-06T12:35:38;8.30;99.90
1570;DHT22;778;50.120;8.698;2024-01-06T12:38:08;8.30;99.90
1570;DHT22;778;50.120;8.698;2024-01-06T12:40:38;8.40;99.90
1570;DHT22;778;50.120;8.698;2024-01-06T12:43:08;8.30;99.90
1570;DHT22;778;50.120;8.698;2024-01-06T12:45:38;8.30;99.90
1570;DHT22;778;50.120;8.698;2024-01-06T12:48:07;8.30;99.90
1570;DHT22;778;50.120;8.698;2024-01-06T12:50:36;8.30;99.90
1570;DHT22;778;50.120;8.698;2024-01-06T12:53:04;8.30;99.90
1570;DHT22;778;50.120;8.698;2024-01-06T12:55:33;8.30;99.90
1570;DHT22;778;50.120;8.698;2024-01-06T12:58:02;8.30;99.90
1570;DHT22;778;50.120;8.698;2024-01-06T13:00:31;8.30;99.90
1570;DHT22;778;50.120;8.698;2024-01-06T13:03:04;8.30;99.90
1570;DHT22;778;50.120;8.698;2024-01-06T13:05:33;8.30;99.90
1570;DHT22;778;50.120;8.698;2024-01-06T13:08:02;8.30;99.90
1570;DHT22;778;50.120;8.698;2024-01-06T13:10:30;8.20;99.90
1570;DHT22;778;50.120;8.698;2024-01-06T13:12:59;8.20;99.90
1570;DHT22;778;50.120;8.698;2024-01-06T13:15:27;8.20;99.90
1570;DHT22;778;50.120;8.698;2024-01-06T13:17:56;8.20;99.90
1570;DHT22;778;50.120;8.698;2024-01-06T13:20:26;8.20;99.90
1570;DHT22;778;50.120;8.698;2024-01-06T13:22:55;8.10;99.90
1570;DHT22;778;50.120;8.698;2024-01-06T13:25:23;8.20;99.90
1570;DHT22;778;50.120;8.698;2024-01-06T13:27:51;8.20;99.90
1570;DHT22;778;50.120;8.698;2024-01-06T13:30:20;8.30;99.90
1570;DHT22;778;50.120;8.698;2024-01-06T13:32:49;8.20;99.90
1570;DHT22;778;50.120;8.698;2024-01-06T13:35:18;8.20;99.90
1570;DHT22;778;50.120;8.698;2024-01-06T13:37:47;8.20;99.90
1570;DHT22;778;50.120;8.698;2024-01-06T13:40:18;8.20;99.90
1570;DHT22;778;50.120;8.698;2024-01-06T13:42:47;8.20;99.90
1570;DHT22;778;50.120;8.698;2024-01-06T13:45:17;8.20;99.90
1570;DHT22;778;50.120;8.698;2024-01-06T13:47:46;8.20;99.90
1570;DHT22;778;50.120;8.698;2024-01-06T13:50:16;8.20;99.90
1570;DHT22;778;50.120;8.698;2024-01-06T13:52:47;8.20;99.90
1570;DHT22;778;50.120;8.698;2024-01-06T13:55:16;8.20;99.90
1570;DHT22;778;50.120;8.698;2024-01-06T13:57:44;8.10;99.90
1570;DHT22;778;50.120;8.698;2024-01-06T14:00:14;8.10;99.90
1570;DHT22;778;50.120;8.698;2024-01-06T14:02:47;8.10;99.90
1570;DHT22;778;50.120;8.698;2024-01-06T14:05:37;8.10;99.90
1570;DHT22;778;50.120;8.698;2024-01-06T14:08:08;8.10;99.90
1570;DHT22;778;50.120;8.698;2024-01-06T14:10:36;8.00;99.90
1570;DHT22;778;50.120;8.698;2024-01-06T14:13:05;8.00;99.90
1570;DHT22;778;50.120;8.698;2024-01-06T14:15:34;8.00;99.90
1570;DHT22;778;50.120;8.698;2024-01-06T14:18:04;8.00;99.90
1570;DHT22;778;50.120;8.698;2024-01-06T14:20:32;8.00;99.90
1570;DHT22;778;50.120;8.698;2024-01-06T14:23:04;8.00;99.90
1570;DHT22;778;50.120;8.698;2024-01-06T14:25:34;8.00;99.90
1570;DHT22;778;50.120;8.698;2024-01-06T14:28:03;8.00;99.90
1570;DHT22;778;50.120;8.698;2024-01-06T14:30:33;8.00;99.90
1570;DHT22;778;50.120;8.698;2024-01-06T14:33:01;8.10;99.90
1570;DHT22;778;50.120;8.698;2024-01-06T14:35:30;8.10;99.90
1570;DHT22;778;50.120;8.698;2024-01-06T14:37:59;8.00;99.90
1570;DHT22;778;50.120;8.698;2024-01-06T14:40:28;8.10;99.90
1570;DHT22;778;50.120;8.698;2024-01-06T14:42:58;8.10;99.90
1570;DHT22;778;50.120;8.698;2024-01-06T14:45:29;8.00;99.90
1570;DHT22;778;50.120;8.698;2024-01-06T14:47:58;8.00;99.90
1570;DHT22;778;50.120;8.698;2024-01-06T14:50:27;7.90;99.90
1570;DHT22;778;50.120;8.698;2024-01-06T14:52:55;7.90;99.90
1570;DHT22;778;50.120;8.698;2024-01-06T14:55:24;7.80;99.90
1570;DHT22;778;50.120;8.698;2024-01-06T14:57:52;7.80;99.90
1570;DHT22;778;50.120;8.698;2024-01-06T15:00:22;7.80;99.90
1570;DHT22;778;50.120;8.698;2024-01-06T15:02:50;7.80;99.90
1570;DHT22;778;50.120;8.698;2024-01-06T15:05:19;7.70;99.90
1570;DHT22;778;50.120;8.698;2024-01-06T15:07:47;7.70;99.90
1570;DHT22;778;50.120;8.698;2024-01-06T15:10:16;7.60;99.90
1570;DHT22;778;50.120;8.698;2024-01-06T15:12:44;7.60;99.90
1570;DHT22;778;50.120;8.698;2024-01-06T15:15:13;7.60;99.90
1570;DHT22;778;50.120;8.698;2024-01-06T15:17:43;7.60;99.90
1570;DHT22;778;50.120;8.698;2024-01-06T15:20:12;7.60;99.90
1570;DHT22;778;50.120;8.698;2024-01-06T15:22:40;7.60;99.90
1570;DHT22;778;50.120;8.698;2024-01-06T15:25:09;7.50;99.90
1570;DHT22;778;50.120;8.698;2024-01-06T15:27:40;7.50;99.90
1570;DHT22;778;50.120;8.698;2024-01-06T15:30:09;7.50;99.90
1570;DHT22;778;50.120;8.698;2024-01-06T15:32:42;7.40;99.90
1570;DHT22;778;50.120;8.698;2024-01-06T15:35:11;7.40;99.90
1570;DHT22;778;50.120;8.698;2024-01-06T15:37:40;7.40;99.90
1570;DHT22;778;50.120;8.698;2024-01-06T15:40:08;7.40;99.90
1570;DHT22;778;50.120;8.698;2024-01-06T15:42:37;7.40;99.90
1570;DHT22;778;50.120;8.698;2024-01-06T15:45:06;7.40;99.90
1570;DHT22;778;50.120;8.698;2024-01-06T15:47:35;7.40;99.90
1570;DHT22;778;50.120;8.698;2024-01-06T15:50:06;7.40;99.90
1570;DHT22;778;50.120;8.698;2024-01-06T15:52:36;7.40;99.90
1570;DHT22;778;50.120;8.698;2024-01-06T15:55:05;7.30;99.90
1570;DHT22;778;50.120;8.698;2024-01-06T15:57:34;7.30;99.90
1570;DHT22;778;50.120;8.698;2024-01-06T16:00:05;7.30;99.90
1570;DHT22;778;50.120;8.698;2024-01-06T16:02:34;7.30;99.90
1570;DHT22;778;50.120;8.698;2024-01-06T16:05:02;7.30;99.90
1570;DHT22;778;50.120;8.698;2024-01-06T16:07:33;7.30;99.90
1570;DHT22;778;50.120;8.698;2024-01-06T16:10:03;7.30;99.90
1570;DHT22;778;50.120;8.698;2024-01-06T16:12:32;7.20;99.90
1570;DHT22;778;50.120;8.698;2024-01-06T16:15:01;7.20;99.90
1570;DHT22;778;50.120;8.698;2024-01-06T16:17:29;7.20;99.90
1570;DHT22;778;50.120;8.698;2024-01-06T16:20:00;7.20;99.90
1570;DHT22;778;50.120;8.698;2024-01-06T16:22:34;7.10;99.90
1570;DHT22;778;50.120;8.698;2024-01-06T16:25:03;7.10;99.90
1570;DHT22;778;50.120;8.698;2024-01-06T16:27:32;7.10;99.90
1570;DHT22;778;50.120;8.698;2024-01-06T16:30:00;7.10;99.90
1570;DHT22;778;50.120;8.698;2024-01-06T16:32:29;7.10;99.90
1570;DHT22;778;50.120;8.698;2024-01-06T16:34:58;7.10;99.90
1570;DHT22;778;50.120;8.698;2024-01-06T16:37:27;7.10;99.90
1570;DHT22;778;50.120;8.698;2024-01-06T16:39:57;7.10;99.90
1570;DHT22;778;50.120;8.698;2024-01-06T16:42:25;7.10;99.90
1570;DHT22;778;50.120;8.698;2024-01-06T16:44:53;7.10;99.90
1570;DHT22;778;50.120;8.698;2024-01-06T16:47:22;7.10;99.90
1570;DHT22;778;50.120;8.698;2024-01-06T16:49:51;7.10;99.90